createdAt,value
2023-04-22T00:04:31.407Z,8.88
2023-04-22T00:09:33.084Z,8.87
2023-04-22T00:14:35.393Z,8.93
2023-04-22T00:19:37.409Z,8.87
2023-04-22T00:24:39.193Z,8.82
2023-04-22T00:29:40.993Z,8.57
2023-04-22T00:34:42.904Z,8.49
2023-04-22T00:39:44.410Z,8.69
2023-04-22T00:44:47.420Z,8.67
2023-04-22T00:49:49.797Z,8.68
2023-04-22T00:54:52.309Z,8.39
2023-04-22T00:59:53.971Z,8.42
2023-04-22T01:04:55.554Z,8.42
2023-04-22T01:09:57.886Z,8.25
2023-04-22T01:14:59.815Z,8.19
2023-04-22T01:20:04.252Z,8.14
2023-04-22T01:25:06.840Z,8.09
2023-04-22T01:30:09.792Z,8.09
2023-04-22T01:35:13.805Z,8.01
2023-04-22T01:40:19.715Z,7.97
2023-04-22T01:45:21.228Z,7.89
2023-04-22T01:50:23.395Z,7.89
2023-04-22T01:55:25.037Z,7.79
2023-04-22T02:00:26.576Z,7.86
2023-04-22T02:05:28.106Z,7.94
2023-04-22T02:10:29.645Z,7.73
2023-04-22T02:15:31.236Z,7.61
2023-04-22T02:20:32.837Z,7.51
2023-04-22T02:25:34.360Z,7.49
2023-04-22T02:30:35.865Z,7.47
2023-04-22T02:35:37.552Z,7.36
2023-04-22T02:40:39.162Z,7.25
2023-04-22T02:45:41.433Z,7.19
2023-04-22T02:50:43.044Z,7.12
2023-04-22T02:55:44.646Z,6.97
2023-04-22T03:00:46.219Z,6.83
2023-04-22T03:05:47.749Z,6.66
2023-04-22T03:10:49.933Z,6.59
2023-04-22T03:15:51.494Z,6.49
2023-04-22T03:20:53.915Z,6.43
2023-04-22T03:25:55.744Z,6.40
2023-04-22T03:30:57.687Z,6.36
2023-04-22T03:35:59.632Z,6.32
2023-04-22T03:41:01.535Z,6.21
2023-04-22T03:46:13.269Z,6.11
2023-04-22T03:51:19.064Z,6.02
2023-04-22T03:56:22.270Z,5.99
2023-04-22T04:01:24.490Z,5.97
2023-04-22T04:06:29.143Z,6.09
2023-04-22T04:11:30.821Z,6.15
2023-04-22T04:16:33.146Z,6.07
2023-04-22T04:21:43.461Z,5.98
2023-04-22T04:26:45.197Z,5.93
2023-04-22T04:31:55.333Z,5.85
2023-04-22T04:37:00.941Z,5.83
2023-04-22T04:42:12.110Z,5.78
2023-04-22T04:47:22.634Z,5.87
2023-04-22T04:52:25.519Z,5.88
2023-04-22T04:57:28.556Z,5.86
2023-04-22T05:02:30.961Z,5.84
2023-04-22T05:07:32.712Z,5.87
2023-04-22T05:12:34.302Z,5.86
2023-04-22T05:17:39.028Z,5.86
2023-04-22T05:22:45.829Z,5.85
2023-04-22T05:27:48.679Z,5.92
2023-04-22T05:32:51.778Z,6.03
2023-04-22T05:37:53.418Z,6.26
2023-04-22T05:42:55.178Z,6.84
2023-04-22T05:47:56.880Z,7.30
2023-04-22T05:53:00.820Z,7.91
2023-04-22T05:58:03.429Z,8.37
2023-04-22T06:03:34.092Z,8.88
2023-04-22T06:08:37.087Z,8.98
2023-04-22T06:13:38.807Z,9.22
2023-04-22T06:18:40.672Z,9.85
2023-04-22T06:23:46.227Z,10.46
2023-04-22T06:28:47.758Z,10.95
2023-04-22T06:33:53.141Z,11.25
2023-04-22T06:38:57.257Z,11.67
2023-04-22T06:44:11.293Z,11.99
2023-04-22T06:49:30.093Z,12.10
2023-04-22T06:54:57.843Z,12.38
2023-04-22T06:59:59.386Z,12.49
2023-04-22T07:05:02.401Z,12.72
2023-04-22T07:10:04.927Z,13.12
2023-04-22T07:15:12.262Z,13.37
2023-04-22T07:20:15.975Z,13.45
2023-04-22T07:25:17.506Z,13.84
2023-04-22T07:30:19.002Z,14.69
2023-04-22T07:35:20.509Z,15.18
2023-04-22T07:40:22.004Z,15.69
2023-04-22T07:45:23.544Z,16.04
2023-04-22T07:50:25.218Z,16.30
2023-04-22T07:55:26.786Z,16.37
2023-04-22T08:00:28.454Z,16.62
2023-04-22T08:05:30.106Z,16.88
2023-04-22T08:10:32.221Z,17.04
2023-04-22T08:15:33.762Z,17.13
2023-04-22T08:20:35.303Z,17.44
2023-04-22T08:25:36.973Z,17.78
2023-04-22T08:30:38.528Z,18.13
2023-04-22T08:35:40.486Z,18.38
2023-04-22T08:40:42.665Z,18.55
2023-04-22T08:45:45.034Z,18.73
2023-04-22T08:50:48.258Z,19.02
2023-04-22T08:55:50.622Z,19.39
2023-04-22T09:00:53.012Z,19.67
2023-04-22T09:05:55.241Z,19.63
2023-04-22T09:10:58.609Z,19.54
2023-04-22T09:16:00.193Z,19.39
2023-04-22T09:21:01.781Z,19.49
2023-04-22T09:26:03.735Z,19.42
2023-04-22T09:31:05.433Z,19.49
2023-04-22T09:36:10.202Z,19.74
2023-04-22T09:41:12.402Z,19.98
2023-04-22T09:46:13.986Z,20.18
2023-04-22T09:51:17.095Z,20.46
2023-04-22T09:56:18.676Z,20.83
2023-04-22T10:01:20.242Z,21.06
2023-04-22T10:06:22.317Z,21.26
2023-04-22T10:11:23.852Z,21.25
2023-04-22T10:16:26.374Z,21.00
2023-04-22T10:21:32.414Z,21.41
2023-04-22T10:26:49.242Z,21.92
2023-04-22T10:32:05.715Z,22.28
2023-04-22T10:37:14.534Z,22.48
2023-04-22T10:42:16.126Z,22.70
2023-04-22T10:47:46.941Z,22.76
2023-04-22T10:52:55.109Z,23.01
2023-04-22T10:57:59.506Z,22.86
2023-04-22T11:03:10.564Z,22.51
2023-04-22T11:08:13.693Z,22.48
2023-04-22T11:13:17.330Z,22.73
2023-04-22T11:18:27.151Z,22.82
2023-04-22T11:23:29.047Z,22.59
2023-04-22T11:28:31.057Z,22.86
2023-04-22T11:33:34.400Z,23.34
2023-04-22T11:38:36.066Z,23.23
2023-04-22T11:43:46.955Z,23.11
2023-04-22T11:48:48.434Z,22.74
2023-04-22T11:53:51.213Z,22.68
2023-04-22T11:58:52.750Z,23.51
2023-04-22T12:04:00.078Z,23.80
2023-04-22T12:09:03.851Z,24.22
2023-04-22T12:14:08.424Z,24.61
2023-04-22T12:19:10.059Z,24.29
2023-04-22T12:24:11.662Z,24.17
2023-04-22T12:29:13.214Z,24.07
2023-04-22T12:34:14.695Z,24.16
2023-04-22T12:39:16.297Z,24.38
2023-04-22T12:44:17.831Z,24.62
2023-04-22T12:49:19.339Z,24.56
2023-04-22T12:54:21.550Z,24.32
2023-04-22T12:59:23.157Z,24.46
2023-04-22T13:04:24.741Z,24.54
2023-04-22T13:09:27.212Z,24.33
2023-04-22T13:14:31.157Z,24.14
2023-04-22T13:19:35.123Z,24.27
2023-04-22T13:24:36.717Z,24.13
2023-04-22T13:29:38.705Z,23.06
2023-04-22T13:34:40.522Z,22.24
2023-04-22T13:39:42.490Z,22.19
2023-04-22T13:44:44.312Z,22.37
2023-04-22T13:49:45.913Z,22.04
2023-04-22T13:54:47.501Z,22.18
2023-04-22T13:59:50.247Z,22.21
2023-04-22T14:04:52.024Z,22.20
2023-04-22T14:09:53.505Z,22.27
2023-04-22T14:14:55.006Z,22.73
2023-04-22T14:19:56.821Z,22.50
2023-04-22T14:24:58.394Z,22.05
2023-04-22T14:29:59.950Z,21.94
2023-04-22T14:35:01.662Z,21.58
2023-04-22T14:40:04.162Z,21.31
2023-04-22T14:45:06.183Z,21.36
2023-04-22T14:50:07.966Z,21.56
2023-04-22T14:55:22.028Z,21.60
2023-04-22T15:00:28.239Z,21.20
2023-04-22T15:05:29.783Z,20.91
2023-04-22T15:10:31.316Z,20.73
2023-04-22T15:15:32.835Z,20.57
2023-04-22T15:20:35.006Z,20.50
2023-04-22T15:25:36.638Z,20.38
2023-04-22T15:30:38.204Z,20.48
2023-04-22T15:35:45.105Z,20.72
2023-04-22T15:40:46.935Z,20.97
2023-04-22T15:45:48.496Z,20.95
2023-04-22T15:50:50.027Z,20.60
2023-04-22T15:55:51.674Z,20.45
2023-04-22T16:00:53.289Z,20.20
2023-04-22T16:05:55.350Z,20.07
2023-04-22T16:10:56.891Z,20.24
2023-04-22T16:15:58.533Z,20.32
2023-04-22T16:21:00.598Z,20.56
2023-04-22T16:26:04.431Z,20.74
2023-04-22T16:31:06.154Z,20.78
2023-04-22T16:36:08.929Z,20.75
2023-04-22T16:41:11.614Z,20.70
2023-04-22T16:46:13.347Z,20.70
2023-04-22T16:51:14.949Z,20.60
2023-04-22T16:56:16.422Z,20.37
2023-04-22T17:01:17.987Z,20.05
2023-04-22T17:06:19.694Z,19.58
2023-04-22T17:11:21.990Z,19.19
2023-04-22T17:16:23.813Z,18.92
2023-04-22T17:21:27.008Z,18.72
2023-04-22T17:26:29.340Z,18.48
2023-04-22T17:31:31.069Z,18.25
2023-04-22T17:36:32.760Z,18.03
2023-04-22T17:41:34.393Z,17.85
2023-04-22T17:46:35.985Z,17.60
2023-04-22T17:51:37.573Z,17.29
2023-04-22T17:56:39.219Z,16.99
2023-04-22T18:01:40.831Z,16.73
2023-04-22T18:06:42.366Z,16.49
2023-04-22T18:11:44.028Z,16.28
2023-04-22T18:16:45.582Z,16.19
2023-04-22T18:21:59.086Z,16.11
2023-04-22T18:27:02.782Z,16.00
2023-04-22T18:32:04.460Z,15.87
2023-04-22T18:37:05.975Z,15.75
2023-04-22T18:42:07.612Z,15.61
2023-04-22T18:47:09.344Z,15.50
2023-04-22T18:52:13.469Z,15.39
2023-04-22T18:57:14.956Z,15.31
2023-04-22T19:02:16.603Z,15.23
2023-04-22T19:07:18.152Z,15.16
2023-04-22T19:12:19.770Z,15.07
2023-04-22T19:17:21.371Z,14.99
2023-04-22T19:22:22.992Z,14.87
2023-04-22T19:27:25.473Z,14.76
2023-04-22T19:32:27.014Z,14.61
2023-04-22T19:37:28.605Z,14.51
2023-04-22T19:42:30.508Z,14.42
2023-04-22T19:47:32.243Z,14.34
2023-04-22T19:52:35.287Z,14.24
2023-04-22T19:57:37.434Z,14.13
2023-04-22T20:02:39.316Z,14.04
2023-04-22T20:07:43.357Z,13.94
2023-04-22T20:12:45.941Z,13.80
2023-04-22T20:17:47.829Z,13.69
2023-04-22T20:22:53.848Z,13.60
2023-04-22T20:27:56.211Z,13.48
2023-04-22T20:32:57.901Z,13.35
2023-04-22T20:38:00.514Z,13.24
2023-04-22T20:43:02.113Z,13.17
2023-04-22T20:48:03.750Z,13.11
2023-04-22T20:53:05.387Z,13.03
2023-04-22T20:58:06.890Z,12.89
2023-04-22T21:03:09.233Z,12.79
2023-04-22T21:08:24.958Z,12.67
2023-04-22T21:13:27.352Z,12.55
2023-04-22T21:18:31.591Z,12.41
2023-04-22T21:23:33.227Z,12.34
2023-04-22T21:28:35.123Z,12.37
2023-04-22T21:33:37.687Z,12.35
2023-04-22T21:38:39.218Z,12.34
2023-04-22T21:43:41.442Z,12.38
2023-04-22T21:48:47.420Z,12.41
2023-04-22T21:53:49.795Z,12.45
2023-04-22T21:58:51.332Z,12.49
2023-04-22T22:03:53.237Z,12.52
2023-04-22T22:08:55.760Z,12.51
2023-04-22T22:13:57.284Z,12.51
2023-04-22T22:18:58.928Z,12.52
2023-04-22T22:24:00.479Z,12.52
2023-04-22T22:29:02.458Z,12.54
2023-04-22T22:34:04.062Z,12.55
2023-04-22T22:39:05.639Z,12.57
2023-04-22T22:44:07.130Z,12.57
2023-04-22T22:49:09.489Z,12.57
2023-04-22T22:54:11.126Z,12.55
2023-04-22T22:59:12.721Z,12.48
2023-04-22T23:04:15.768Z,12.40
2023-04-22T23:09:19.039Z,12.43
2023-04-22T23:14:21.757Z,12.41
2023-04-22T23:19:23.489Z,12.31
2023-04-22T23:24:25.368Z,12.22
2023-04-22T23:29:27.276Z,12.21
2023-04-22T23:34:31.775Z,12.18
2023-04-22T23:39:33.411Z,12.10
2023-04-22T23:44:34.897Z,12.04
2023-04-22T23:49:36.693Z,11.93
2023-04-22T23:54:39.345Z,11.82
2023-04-22T23:59:43.561Z,11.84
